createdAt,value
2023-03-13T00:01:57.086Z,99.90
2023-03-13T00:04:24.137Z,99.90
2023-03-13T00:06:51.031Z,99.90
2023-03-13T00:09:18.431Z,99.90
2023-03-13T00:11:45.927Z,99.90
2023-03-13T00:14:13.293Z,99.90
2023-03-13T00:16:40.225Z,99.90
2023-03-13T00:19:08.263Z,99.90
2023-03-13T00:21:37.598Z,99.90
2023-03-13T00:24:05.178Z,99.90
2023-03-13T00:26:32.116Z,99.90
2023-03-13T00:28:59.465Z,99.90
2023-03-13T00:31:31.625Z,99.90
2023-03-13T00:34:03.195Z,99.90
2023-03-13T00:36:35.409Z,99.90
2023-03-13T00:39:03.985Z,99.90
2023-03-13T00:41:32.936Z,99.90
2023-03-13T00:44:00.312Z,99.90
2023-03-13T00:46:29.728Z,99.90
2023-03-13T00:48:57.434Z,99.90
2023-03-13T00:51:26.990Z,99.90
2023-03-13T00:54:00.453Z,99.90
2023-03-13T00:56:28.423Z,99.90
2023-03-13T00:58:55.628Z,99.90
2023-03-13T01:01:25.738Z,99.90
2023-03-13T01:03:58.213Z,99.90
2023-03-13T01:06:28.174Z,99.90
2023-03-13T01:08:55.631Z,99.90
2023-03-13T01:11:25.436Z,99.90
2023-03-13T01:14:00.744Z,99.90
2023-03-13T01:16:29.933Z,99.90
2023-03-13T01:18:59.745Z,99.90
2023-03-13T01:21:27.968Z,99.90
2023-03-13T01:23:54.998Z,99.90
2023-03-13T01:26:22.674Z,99.90
2023-03-13T01:28:49.938Z,99.90
2023-03-13T01:31:20.745Z,99.90
2023-03-13T01:33:49.870Z,99.90
2023-03-13T01:36:18.032Z,99.90
2023-03-13T01:38:47.648Z,99.90
2023-03-13T01:41:14.691Z,99.90
2023-03-13T01:43:41.644Z,99.90
2023-03-13T01:46:10.211Z,99.90
2023-03-13T01:48:49.309Z,99.90
2023-03-13T01:51:33.226Z,99.90
2023-03-13T01:54:28.720Z,99.90
2023-03-13T01:56:58.493Z,99.90
2023-03-13T01:59:33.874Z,99.90
2023-03-13T02:02:02.926Z,99.90
2023-03-13T02:04:36.548Z,99.90
2023-03-13T02:07:09.964Z,99.90
2023-03-13T02:09:41.301Z,99.90
2023-03-13T02:12:14.697Z,99.90
2023-03-13T02:14:45.235Z,99.90
2023-03-13T02:17:13.774Z,99.90
2023-03-13T02:19:45.396Z,99.90
2023-03-13T02:22:25.642Z,99.90
2023-03-13T02:25:09.351Z,99.90
2023-03-13T02:27:36.519Z,99.90
2023-03-13T02:30:05.262Z,99.90
2023-03-13T02:32:32.573Z,99.90
2023-03-13T02:35:06.612Z,99.90
2023-03-13T02:37:33.870Z,99.90
2023-03-13T02:40:05.943Z,99.90
2023-03-13T02:42:32.856Z,99.90
2023-03-13T02:44:59.850Z,99.90
2023-03-13T02:47:26.727Z,99.90
2023-03-13T02:49:53.651Z,99.90
2023-03-13T02:52:42.110Z,99.90
2023-03-13T02:55:18.195Z,99.90
2023-03-13T02:57:45.365Z,99.90
2023-03-13T03:00:13.016Z,99.90
2023-03-13T03:02:40.003Z,99.90
2023-03-13T03:05:08.089Z,99.90
2023-03-13T03:07:35.090Z,99.90
2023-03-13T03:10:02.017Z,99.90
2023-03-13T03:12:28.953Z,99.90
2023-03-13T03:14:55.958Z,99.90
2023-03-13T03:17:22.903Z,99.90
2023-03-13T03:19:49.848Z,99.90
2023-03-13T03:22:16.807Z,99.90
2023-03-13T03:24:45.713Z,99.90
2023-03-13T03:27:12.577Z,99.90
2023-03-13T03:29:39.601Z,99.90
2023-03-13T03:32:06.785Z,99.90
2023-03-13T03:34:34.058Z,99.90
2023-03-13T03:37:00.909Z,99.90
2023-03-13T03:39:28.072Z,99.90
2023-03-13T03:41:54.930Z,99.90
2023-03-13T03:44:21.871Z,99.90
2023-03-13T03:46:48.782Z,99.90
2023-03-13T03:49:15.727Z,99.90
2023-03-13T03:51:42.581Z,99.90
2023-03-13T03:54:09.536Z,99.90
2023-03-13T03:56:36.374Z,99.90
2023-03-13T03:59:03.336Z,99.90
2023-03-13T04:01:30.189Z,99.90
2023-03-13T04:03:57.137Z,99.90
2023-03-13T04:06:24.070Z,99.90
2023-03-13T04:08:51.018Z,99.90
2023-03-13T04:11:17.881Z,99.90
2023-03-13T04:13:44.850Z,99.90
2023-03-13T04:16:11.995Z,99.90
2023-03-13T04:18:38.945Z,99.90
2023-03-13T04:21:06.512Z,99.90
2023-03-13T04:23:33.402Z,99.90
2023-03-13T04:26:00.318Z,99.90
2023-03-13T04:28:27.190Z,99.90
2023-03-13T04:30:57.441Z,99.90
2023-03-13T04:33:25.575Z,99.90
2023-03-13T04:35:52.675Z,99.90
2023-03-13T04:38:19.588Z,99.90
2023-03-13T04:40:47.987Z,99.90
2023-03-13T04:43:14.903Z,99.90
2023-03-13T04:45:41.842Z,99.90
2023-03-13T04:48:08.798Z,99.90
2023-03-13T04:50:35.829Z,99.90
2023-03-13T04:53:02.714Z,99.90
2023-03-13T04:55:29.730Z,99.90
2023-03-13T04:57:56.647Z,99.90
2023-03-13T05:00:23.724Z,99.90
2023-03-13T05:02:50.622Z,99.90
2023-03-13T05:05:17.732Z,99.90
2023-03-13T05:07:44.730Z,99.90
2023-03-13T05:10:11.833Z,99.90
2023-03-13T05:12:38.922Z,99.90
2023-03-13T05:15:06.230Z,99.90
2023-03-13T05:17:33.282Z,99.90
2023-03-13T05:20:00.189Z,99.90
2023-03-13T05:22:27.419Z,99.90
2023-03-13T05:24:54.341Z,99.90
2023-03-13T05:27:21.427Z,99.90
2023-03-13T05:29:48.337Z,99.90
2023-03-13T05:32:15.490Z,99.90
2023-03-13T05:34:42.352Z,99.90
2023-03-13T05:37:09.322Z,99.90
2023-03-13T05:39:36.301Z,99.90
2023-03-13T05:42:03.294Z,99.90
2023-03-13T05:44:30.222Z,99.90
2023-03-13T05:46:57.260Z,99.90
2023-03-13T05:49:24.195Z,99.90
2023-03-13T05:51:51.339Z,99.90
2023-03-13T05:54:18.256Z,99.90
2023-03-13T05:56:45.291Z,99.90
2023-03-13T05:59:12.156Z,99.90
2023-03-13T06:01:39.088Z,99.90
2023-03-13T06:04:06.133Z,99.90
2023-03-13T06:06:33.213Z,99.90
2023-03-13T06:09:00.160Z,99.90
2023-03-13T06:11:27.473Z,99.90
2023-03-13T06:13:54.610Z,99.90
2023-03-13T06:16:21.591Z,99.90
2023-03-13T06:18:48.550Z,99.90
2023-03-13T06:21:15.837Z,99.90
2023-03-13T06:23:42.730Z,99.90
2023-03-13T06:26:09.701Z,99.90
2023-03-13T06:28:36.574Z,99.90
2023-03-13T06:31:05.507Z,99.90
2023-03-13T06:33:33.287Z,99.90
2023-03-13T06:36:03.964Z,99.90
2023-03-13T06:38:32.066Z,99.90
2023-03-13T06:40:59.076Z,99.90
2023-03-13T06:43:26.301Z,99.90
2023-03-13T06:45:53.344Z,99.90
2023-03-13T06:48:22.973Z,99.90
2023-03-13T06:50:50.177Z,99.90
2023-03-13T06:53:21.111Z,99.90
2023-03-13T06:55:49.136Z,99.90
2023-03-13T06:58:31.156Z,99.90
2023-03-13T07:00:59.979Z,99.90
2023-03-13T07:03:27.062Z,99.90
2023-03-13T07:05:58.111Z,99.90
2023-03-13T07:08:26.045Z,99.90
2023-03-13T07:10:54.926Z,99.90
2023-03-13T07:13:22.281Z,99.90
2023-03-13T07:15:49.513Z,99.90
2023-03-13T07:18:16.475Z,99.90
2023-03-13T07:20:43.882Z,99.90
2023-03-13T07:23:10.903Z,99.90
2023-03-13T07:25:37.780Z,99.90
2023-03-13T07:28:04.933Z,99.90
2023-03-13T07:30:31.915Z,99.90
2023-03-13T07:32:59.214Z,99.90
2023-03-13T07:35:26.161Z,99.90
2023-03-13T07:37:53.226Z,99.90
2023-03-13T07:40:20.372Z,99.90
2023-03-13T07:42:47.315Z,99.90
2023-03-13T07:45:14.276Z,99.90
2023-03-13T07:47:41.218Z,99.90
2023-03-13T07:50:08.907Z,99.90
2023-03-13T07:52:35.882Z,99.90
2023-03-13T07:55:02.816Z,99.90
2023-03-13T07:57:30.586Z,99.90
2023-03-13T07:59:57.468Z,99.90
2023-03-13T08:02:24.477Z,99.90
2023-03-13T08:04:54.278Z,99.90
2023-03-13T08:07:21.211Z,99.90
2023-03-13T08:09:48.210Z,99.90
2023-03-13T08:12:15.085Z,99.90
2023-03-13T08:14:41.944Z,99.90
2023-03-13T08:17:09.020Z,99.90
2023-03-13T08:19:36.215Z,99.90
2023-03-13T08:22:03.300Z,99.90
2023-03-13T08:24:30.289Z,99.90
2023-03-13T08:26:57.274Z,99.90
2023-03-13T08:29:24.300Z,99.90
2023-03-13T08:31:52.765Z,99.90
2023-03-13T08:34:19.899Z,99.90
2023-03-13T08:36:47.953Z,99.90
2023-03-13T08:39:16.200Z,99.90
2023-03-13T08:41:43.846Z,99.90
2023-03-13T08:44:16.429Z,99.90
2023-03-13T08:46:44.447Z,99.90
2023-03-13T08:49:12.633Z,99.90
2023-03-13T08:51:40.334Z,99.90
2023-03-13T08:54:07.280Z,99.90
2023-03-13T08:56:35.033Z,99.90
2023-03-13T08:59:03.646Z,99.90
2023-03-13T09:01:33.016Z,99.90
2023-03-13T09:04:03.840Z,99.90
2023-03-13T09:06:32.261Z,99.90
2023-03-13T09:08:59.282Z,99.90
2023-03-13T09:11:26.994Z,99.90
2023-03-13T09:13:56.222Z,99.90
2023-03-13T09:16:29.261Z,99.90
2023-03-13T09:18:57.248Z,99.90
2023-03-13T09:21:29.573Z,99.90
2023-03-13T09:23:57.076Z,99.90
2023-03-13T09:26:24.806Z,99.90
2023-03-13T09:28:52.778Z,99.90
2023-03-13T09:31:23.166Z,99.90
2023-03-13T09:33:51.135Z,99.90
2023-03-13T09:36:22.066Z,99.50
2023-03-13T09:38:51.855Z,96.30
2023-03-13T09:41:36.533Z,97.70
2023-03-13T09:44:15.476Z,99.10
2023-03-13T09:46:54.654Z,99.90
2023-03-13T09:49:39.994Z,99.90
2023-03-13T09:52:25.770Z,99.90
2023-03-13T09:55:03.065Z,99.90
2023-03-13T09:57:44.006Z,99.90
2023-03-13T10:00:29.330Z,99.90
2023-03-13T10:03:10.913Z,99.90
2023-03-13T10:05:50.800Z,99.90
2023-03-13T10:08:24.532Z,99.90
2023-03-13T10:11:12.358Z,99.90
2023-03-13T10:14:20.429Z,99.90
2023-03-13T10:17:12.670Z,99.90
2023-03-13T10:19:43.469Z,99.90
2023-03-13T10:22:22.354Z,99.90
2023-03-13T10:24:58.285Z,99.90
2023-03-13T10:27:25.238Z,99.90
2023-03-13T10:29:52.345Z,99.90
2023-03-13T10:32:20.049Z,99.90
2023-03-13T10:35:00.979Z,99.90
2023-03-13T10:37:31.486Z,99.90
2023-03-13T10:40:26.969Z,99.90
2023-03-13T10:43:22.297Z,99.90
2023-03-13T10:45:49.373Z,99.90
2023-03-13T10:48:22.029Z,99.90
2023-03-13T10:50:54.688Z,99.90
2023-03-13T10:53:30.805Z,99.90
2023-03-13T10:56:10.785Z,99.90
2023-03-13T10:58:41.803Z,99.90
2023-03-13T11:01:23.205Z,99.90
2023-03-13T11:03:52.635Z,99.90
2023-03-13T11:06:32.872Z,99.90
2023-03-13T11:09:09.996Z,99.90
2023-03-13T11:12:01.625Z,99.90
2023-03-13T11:14:28.693Z,99.90
2023-03-13T11:17:15.178Z,99.90
2023-03-13T11:20:14.358Z,99.90
2023-03-13T11:23:08.710Z,99.90
2023-03-13T11:26:12.778Z,99.90
2023-03-13T11:29:02.765Z,99.90
2023-03-13T11:31:43.654Z,99.90
2023-03-13T11:34:32.532Z,99.90
2023-03-13T11:37:12.283Z,99.90
2023-03-13T11:39:56.926Z,99.90
2023-03-13T11:42:39.022Z,99.90
2023-03-13T11:45:32.756Z,99.90
2023-03-13T11:48:05.177Z,99.90
2023-03-13T11:50:55.156Z,99.90
2023-03-13T11:53:40.843Z,99.90
2023-03-13T11:56:42.862Z,99.90
2023-03-13T11:59:45.721Z,99.90
2023-03-13T12:02:26.511Z,99.90
2023-03-13T12:05:02.111Z,99.90
2023-03-13T12:07:55.674Z,99.90
2023-03-13T12:10:41.324Z,99.90
2023-03-13T12:13:21.557Z,99.90
2023-03-13T12:15:54.597Z,99.90
2023-03-13T12:18:38.628Z,99.90
2023-03-13T12:21:32.361Z,99.90
2023-03-13T12:24:24.197Z,99.90
2023-03-13T12:26:58.446Z,99.90
2023-03-13T12:29:53.498Z,99.90
2023-03-13T12:32:52.638Z,99.90
2023-03-13T12:35:30.725Z,99.90
2023-03-13T12:38:41.656Z,99.90
2023-03-13T12:41:31.590Z,99.90
2023-03-13T12:44:08.177Z,99.90
2023-03-13T12:46:39.160Z,99.90
2023-03-13T12:49:38.326Z,99.90
2023-03-13T12:52:11.267Z,99.90
2023-03-13T12:55:08.310Z,99.90
2023-03-13T12:57:50.089Z,99.90
2023-03-13T13:00:21.810Z,99.90
2023-03-13T13:03:01.806Z,99.90
2023-03-13T13:05:28.833Z,99.90
2023-03-13T13:07:56.894Z,99.90
2023-03-13T13:10:26.744Z,99.90
2023-03-13T13:13:15.337Z,99.90
2023-03-13T13:15:47.612Z,99.90
2023-03-13T13:18:30.529Z,99.90
2023-03-13T13:21:03.177Z,99.90
2023-03-13T13:23:43.786Z,99.90
2023-03-13T13:26:29.655Z,99.90
2023-03-13T13:29:25.269Z,99.90
2023-03-13T13:31:52.283Z,99.90
2023-03-13T13:34:28.572Z,99.90
2023-03-13T13:37:00.626Z,99.90
2023-03-13T13:39:40.242Z,99.90
2023-03-13T13:42:32.321Z,99.90
2023-03-13T13:45:04.779Z,99.90
2023-03-13T13:47:33.809Z,99.90
2023-03-13T13:50:01.309Z,99.90
2023-03-13T13:52:36.742Z,99.90
2023-03-13T13:55:21.861Z,99.90
2023-03-13T13:57:49.940Z,99.90
2023-03-13T14:00:23.931Z,99.90
2023-03-13T14:02:52.208Z,99.90
2023-03-13T14:05:27.040Z,99.90
2023-03-13T14:08:33.076Z,99.90
2023-03-13T14:11:14.914Z,99.90
2023-03-13T14:13:42.355Z,99.90
2023-03-13T14:16:36.907Z,99.90
2023-03-13T14:19:04.539Z,99.90
2023-03-13T14:21:33.162Z,99.90
2023-03-13T14:24:00.120Z,99.90
2023-03-13T14:26:29.202Z,99.90
2023-03-13T14:28:57.477Z,99.90
2023-03-13T14:31:31.888Z,99.90
2023-03-13T14:34:02.318Z,99.90
2023-03-13T14:36:29.606Z,99.90
2023-03-13T14:38:58.873Z,99.90
2023-03-13T14:41:37.723Z,99.90
2023-03-13T14:44:24.057Z,99.90
2023-03-13T14:46:58.995Z,99.90
2023-03-13T14:49:31.738Z,99.90
2023-03-13T14:52:17.377Z,99.90
2023-03-13T14:55:04.283Z,99.90
2023-03-13T14:57:32.432Z,99.90
2023-03-13T15:00:22.784Z,99.90
2023-03-13T15:02:49.779Z,99.90
2023-03-13T15:05:34.007Z,99.90
2023-03-13T15:08:00.907Z,99.90
2023-03-13T15:10:40.763Z,99.90
2023-03-13T15:13:20.001Z,99.90
2023-03-13T15:15:51.205Z,99.90
2023-03-13T15:18:26.784Z,99.90
2023-03-13T15:20:57.432Z,99.90
2023-03-13T15:23:24.889Z,99.90
2023-03-13T15:25:51.793Z,99.90
2023-03-13T15:28:21.677Z,99.90
2023-03-13T15:30:54.128Z,99.90
2023-03-13T15:33:23.438Z,99.90
2023-03-13T15:35:50.758Z,99.90
2023-03-13T15:38:20.465Z,99.90
2023-03-13T15:40:48.134Z,99.90
2023-03-13T15:43:15.771Z,99.90
2023-03-13T15:45:44.833Z,99.90
2023-03-13T15:48:15.821Z,99.90
2023-03-13T15:50:43.823Z,99.90
2023-03-13T15:53:19.126Z,99.90
2023-03-13T15:55:48.322Z,99.90
2023-03-13T15:58:16.176Z,99.90
2023-03-13T16:00:44.602Z,99.90
2023-03-13T16:03:16.924Z,99.90
2023-03-13T16:05:44.195Z,99.90
2023-03-13T16:08:34.230Z,99.90
2023-03-13T16:11:02.421Z,99.90
2023-03-13T16:13:29.494Z,99.90
2023-03-13T16:15:56.767Z,99.90
2023-03-13T16:18:24.850Z,99.90
2023-03-13T16:20:54.174Z,99.90
2023-03-13T16:23:21.149Z,99.90
2023-03-13T16:25:49.067Z,99.90
2023-03-13T16:28:16.585Z,99.90
2023-03-13T16:30:44.048Z,99.80
2023-03-13T16:33:11.740Z,99.90
2023-03-13T16:35:39.284Z,99.50
2023-03-13T16:38:08.445Z,99.40
2023-03-13T16:40:35.873Z,99.20
2023-03-13T16:43:03.148Z,99.50
2023-03-13T16:45:30.368Z,99.30
2023-03-13T16:47:57.311Z,98.80
2023-03-13T16:50:33.229Z,98.60
2023-03-13T16:53:00.423Z,98.30
2023-03-13T16:55:28.803Z,98.40
2023-03-13T16:57:57.089Z,98.20
2023-03-13T17:00:25.932Z,98.40
2023-03-13T17:02:53.067Z,98.20
2023-03-13T17:05:20.292Z,98.50
2023-03-13T17:07:49.347Z,98.50
2023-03-13T17:10:32.079Z,98.30
2023-03-13T17:12:59.691Z,98.70
2023-03-13T17:15:28.748Z,98.80
2023-03-13T17:17:56.163Z,98.70
2023-03-13T17:20:30.193Z,99.20
2023-03-13T17:22:57.495Z,99.30
2023-03-13T17:25:24.949Z,99.80
2023-03-13T17:27:52.219Z,99.20
2023-03-13T17:30:30.178Z,99.50
2023-03-13T17:32:59.040Z,99.40
2023-03-13T17:35:26.211Z,99.70
2023-03-13T17:37:53.134Z,99.90
2023-03-13T17:40:21.528Z,99.90
2023-03-13T17:42:48.673Z,99.90
2023-03-13T17:45:15.673Z,99.90
2023-03-13T17:47:42.887Z,99.90
2023-03-13T17:50:26.410Z,99.90
2023-03-13T17:52:53.781Z,99.90
2023-03-13T17:55:20.713Z,99.90
2023-03-13T17:57:52.116Z,99.90
2023-03-13T18:00:31.882Z,99.90
2023-03-13T18:02:59.959Z,99.80
2023-03-13T18:05:28.025Z,99.70
2023-03-13T18:07:56.506Z,99.90
2023-03-13T18:10:26.036Z,99.90
2023-03-13T18:12:53.672Z,99.90
2023-03-13T18:15:22.348Z,99.90
2023-03-13T18:17:49.914Z,99.90
2023-03-13T18:20:30.425Z,99.90
2023-03-13T18:23:00.404Z,99.90
2023-03-13T18:25:28.601Z,99.90
2023-03-13T18:27:55.658Z,99.90
2023-03-13T18:30:25.089Z,99.90
2023-03-13T18:32:52.453Z,99.90
2023-03-13T18:35:19.487Z,99.90
2023-03-13T18:37:47.630Z,99.90
2023-03-13T18:40:23.409Z,99.90
2023-03-13T18:42:50.760Z,99.90
2023-03-13T18:45:20.121Z,99.90
2023-03-13T18:47:50.233Z,99.90
2023-03-13T18:50:20.509Z,99.90
2023-03-13T18:52:47.442Z,99.90
2023-03-13T18:55:14.459Z,99.90
2023-03-13T18:57:41.450Z,99.90
2023-03-13T19:00:34.754Z,99.90
2023-03-13T19:03:01.727Z,99.90
2023-03-13T19:05:28.924Z,99.90
2023-03-13T19:07:56.067Z,99.90
2023-03-13T19:10:27.404Z,99.90
2023-03-13T19:12:55.643Z,99.90
2023-03-13T19:15:25.932Z,99.90
2023-03-13T19:17:54.090Z,99.90
2023-03-13T19:20:23.387Z,99.90
2023-03-13T19:22:50.318Z,99.90
2023-03-13T19:25:17.532Z,99.90
2023-03-13T19:27:45.479Z,99.90
2023-03-13T19:30:20.754Z,99.90
2023-03-13T19:32:47.740Z,99.90
2023-03-13T19:35:18.917Z,99.90
2023-03-13T19:37:46.539Z,99.90
2023-03-13T19:40:20.764Z,99.90
2023-03-13T19:42:47.703Z,99.90
2023-03-13T19:45:17.328Z,99.90
2023-03-13T19:47:44.682Z,99.90
2023-03-13T19:50:24.036Z,99.90
2023-03-13T19:52:50.933Z,99.90
2023-03-13T19:55:17.944Z,99.90
2023-03-13T19:57:45.028Z,99.90
2023-03-13T20:00:23.876Z,99.90
2023-03-13T20:02:54.826Z,99.90
2023-03-13T20:05:22.513Z,99.90
2023-03-13T20:07:49.434Z,99.90
2023-03-13T20:10:16.589Z,99.90
2023-03-13T20:12:43.528Z,99.90
2023-03-13T20:15:11.169Z,99.90
2023-03-13T20:17:38.107Z,99.90
2023-03-13T20:20:08.351Z,99.90
2023-03-13T20:22:35.469Z,99.90
2023-03-13T20:25:02.470Z,99.90
2023-03-13T20:27:29.437Z,99.90
2023-03-13T20:29:56.368Z,99.90
2023-03-13T20:32:23.257Z,99.90
2023-03-13T20:34:50.264Z,99.90
2023-03-13T20:37:17.137Z,99.90
2023-03-13T20:39:44.037Z,99.90
2023-03-13T20:42:11.613Z,99.90
2023-03-13T20:44:38.654Z,99.90
2023-03-13T20:47:05.608Z,99.90
2023-03-13T20:49:34.556Z,99.90
2023-03-13T20:52:01.606Z,99.90
2023-03-13T20:54:28.517Z,99.90
2023-03-13T20:56:55.638Z,99.90
2023-03-13T20:59:22.514Z,99.90
2023-03-13T21:01:49.494Z,99.90
2023-03-13T21:04:16.480Z,99.90
2023-03-13T21:06:43.842Z,99.90
2023-03-13T21:09:10.760Z,99.90
2023-03-13T21:11:37.798Z,99.90
2023-03-13T21:14:04.888Z,99.90
2023-03-13T21:16:31.802Z,99.90
2023-03-13T21:18:59.097Z,99.90
2023-03-13T21:21:26.183Z,99.90
2023-03-13T21:23:53.272Z,99.90
2023-03-13T21:26:20.348Z,99.90
2023-03-13T21:28:48.908Z,99.90
2023-03-13T21:31:17.782Z,99.90
2023-03-13T21:33:45.900Z,99.90
2023-03-13T21:36:14.964Z,99.90
2023-03-13T21:38:42.368Z,99.90
2023-03-13T21:41:10.992Z,99.90
2023-03-13T21:43:41.443Z,99.90
2023-03-13T21:46:09.911Z,99.90
2023-03-13T21:48:39.092Z,99.90
2023-03-13T21:51:06.881Z,99.90
2023-03-13T21:53:34.634Z,99.90
2023-03-13T21:56:01.849Z,99.90
2023-03-13T21:58:28.845Z,99.90
2023-03-13T22:00:56.989Z,99.90
2023-03-13T22:03:26.577Z,99.90
2023-03-13T22:05:54.026Z,99.90
2023-03-13T22:08:21.044Z,99.90
2023-03-13T22:10:49.550Z,99.90
2023-03-13T22:13:16.760Z,99.90
2023-03-13T22:15:46.321Z,99.90
2023-03-13T22:18:15.114Z,99.90
2023-03-13T22:20:43.080Z,99.90
2023-03-13T22:23:12.027Z,99.90
2023-03-13T22:25:40.489Z,99.90
2023-03-13T22:28:07.985Z,99.90
2023-03-13T22:30:35.626Z,99.90
2023-03-13T22:33:06.586Z,99.90
2023-03-13T22:35:45.128Z,99.90
2023-03-13T22:38:12.029Z,99.90
2023-03-13T22:40:38.998Z,99.90
2023-03-13T22:43:05.901Z,99.90
2023-03-13T22:45:34.086Z,99.90
2023-03-13T22:48:06.143Z,99.90
2023-03-13T22:50:34.431Z,99.90
2023-03-13T22:53:01.938Z,99.90
2023-03-13T22:55:29.164Z,99.90
2023-03-13T22:57:56.181Z,99.90
2023-03-13T23:00:23.365Z,99.90
2023-03-13T23:02:50.439Z,99.90
2023-03-13T23:05:17.500Z,99.90
2023-03-13T23:07:44.626Z,99.90
2023-03-13T23:10:12.580Z,99.90
2023-03-13T23:12:39.619Z,99.90
2023-03-13T23:15:07.665Z,99.90
2023-03-13T23:17:35.238Z,99.90
2023-03-13T23:20:10.686Z,99.90
2023-03-13T23:22:37.595Z,99.90
2023-03-13T23:25:05.581Z,99.90
2023-03-13T23:27:33.134Z,99.90
2023-03-13T23:30:04.229Z,99.90
2023-03-13T23:32:36.771Z,99.90
2023-03-13T23:35:04.913Z,99.90
2023-03-13T23:37:33.286Z,99.90
2023-03-13T23:40:08.183Z,99.90
2023-03-13T23:42:35.190Z,99.90
2023-03-13T23:45:09.208Z,99.90
2023-03-13T23:47:36.331Z,99.90
2023-03-13T23:50:05.333Z,99.90
2023-03-13T23:52:36.469Z,99.90
2023-03-13T23:55:04.733Z,99.90
2023-03-13T23:57:32.477Z,99.90
